Time;durP1;ratioP1;P1;durP2;ratioP2;P2;SDS_P1;SDS_P2;PMS_P1;PMS_P2;Temp;Humidity;BMP_temperature;BMP_pressure;BME280_temperature;BME280_humidity;BME280_pressure;Samples;Min_cycle;Max_cycle;Signal;HPM_P1;HPM_P2
2022/11/08 00:02:12;;;;;;;;;;;;;;;9.79;74.00;98278.41;7389408;19;19948;-77
2022/11/08 00:04:38;;;;;;;;;;;;;;;9.66;74.32;98276.13;7390896;19;19942;-77
2022/11/08 00:15:21;;;;;;;;;;;;;;;9.65;74.67;98295.63;7390824;19;19919;-77
2022/11/08 00:17:48;;;;;;;;;;;;;;;9.66;74.30;98287.56;7388841;19;20349;-77
2022/11/08 00:20:14;;;;;;;;;;;;;;;9.60;74.54;98295.25;7387537;19;19919;-77
2022/11/08 00:22:41;;;;;;;;;;;;;;;9.51;75.08;98291.72;7388015;19;19922;-77
2022/11/08 00:25:09;;;;;;;;;;;;;;;9.60;74.79;98280.22;7388492;19;19923;-77
2022/11/08 00:27:35;;;;;;;;;;;;;;;9.57;75.24;98290.28;7387236;19;19939;-77
2022/11/08 00:30:02;;;;;;;;;;;;;;;9.48;75.58;98285.88;7390982;19;19944;-76
2022/11/08 00:32:28;;;;;;;;;;;;;;;9.43;75.70;98281.06;7386788;19;20509;-76
2022/11/08 00:34:55;;;;;;;;;;;;;;;9.40;75.41;98278.69;7391071;19;19922;-77
2022/11/08 00:37:22;;;;;;;;;;;;;;;9.29;75.73;98277.13;7390264;19;19948;-76
2022/11/08 00:39:48;;;;;;;;;;;;;;;9.37;76.14;98284.28;7390934;19;19919;-77
2022/11/08 00:42:15;;;;;;;;;;;;;;;9.56;75.07;98280.69;7384359;19;19919;-76
2022/11/08 00:44:41;;;;;;;;;;;;;;;9.60;74.38;98269.66;7388153;19;20560;-77
2022/11/08 00:47:08;;;;;;;;;;;;;;;9.47;74.96;98271.84;7392967;19;19923;-76
2022/11/08 00:49:34;;;;;;;;;;;;;;;9.49;74.85;98269.06;7389150;19;19923;-76
2022/11/08 00:52:01;;;;;;;;;;;;;;;9.39;74.93;98267.31;7387283;19;19922;-76
2022/11/08 00:54:28;;;;;;;;;;;;;;;9.40;75.50;98268.16;7392580;19;19915;-76
2022/11/08 00:56:54;;;;;;;;;;;;;;;9.57;73.96;98263.84;7386019;19;19958;-76
2022/11/08 00:59:21;;;;;;;;;;;;;;;9.56;74.05;98255.09;7388555;19;19919;-77
2022/11/08 01:01:47;;;;;;;;;;;;;;;9.53;74.32;98265.13;7389082;19;19922;-76
2022/11/08 01:04:15;;;;;;;;;;;;;;;9.58;73.96;98260.22;7388437;19;19915;-76
2022/11/08 01:06:41;;;;;;;;;;;;;;;9.53;74.26;98263.34;7387415;19;19955;-76
2022/11/08 01:09:08;;;;;;;;;;;;;;;9.33;75.03;98264.47;7390941;19;19923;-77
2022/11/08 01:11:35;;;;;;;;;;;;;;;9.38;74.57;98252.47;7386107;19;19922;-77
2022/11/08 01:14:01;;;;;;;;;;;;;;;9.32;74.53;98255.72;7387187;19;20666;-77
2022/11/08 01:16:29;;;;;;;;;;;;;;;9.21;74.06;98251.47;7385867;19;20412;-77
2022/11/08 01:18:56;;;;;;;;;;;;;;;9.13;74.86;98250.56;7388165;19;19919;-77
2022/11/08 01:21:23;;;;;;;;;;;;;;;9.02;74.91;98243.69;7385317;19;19927;-76
2022/11/08 01:23:50;;;;;;;;;;;;;;;8.99;75.10;98249.28;7389465;19;20030;-76
2022/11/08 01:26:17;;;;;;;;;;;;;;;8.82;75.64;98255.34;7387687;19;20394;-76
2022/11/08 01:28:44;;;;;;;;;;;;;;;8.92;75.45;98249.03;7387986;19;19930;-77
2022/11/08 01:31:12;;;;;;;;;;;;;;;8.95;75.21;98238.19;7386742;19;19927;-77
2022/11/08 01:33:38;;;;;;;;;;;;;;;8.81;75.51;98241.31;7386855;19;19922;-76
2022/11/08 01:36:09;;;;;;;;;;;;;;;8.71;75.24;98236.09;7387292;19;20354;-77
2022/11/08 01:38:35;;;;;;;;;;;;;;;8.89;74.48;98238.78;7386290;19;19919;-76
2022/11/08 01:41:02;;;;;;;;;;;;;;;8.79;74.65;98241.50;7384344;19;19963;-77
2022/11/08 01:43:29;;;;;;;;;;;;;;;8.77;74.68;98237.34;7386046;19;19914;-77
2022/11/08 01:46:10;;;;;;;;;;;;;;;8.75;75.09;98237.47;7389246;19;20347;-76
2022/11/08 01:48:38;;;;;;;;;;;;;;;8.72;75.69;98236.94;7386119;19;19930;-77
2022/11/08 01:51:05;;;;;;;;;;;;;;;8.75;75.56;98221.66;7380342;19;20068;-77
2022/11/08 01:53:31;;;;;;;;;;;;;;;8.68;76.00;98215.28;7385061;19;19930;-77
2022/11/08 01:55:58;;;;;;;;;;;;;;;8.71;75.54;98220.28;7388186;19;19927;-76
2022/11/08 01:58:25;;;;;;;;;;;;;;;8.75;75.86;98211.09;7382532;19;19959;-77
2022/11/08 02:00:51;;;;;;;;;;;;;;;8.69;76.06;98205.56;7386587;19;19932;-77
2022/11/08 02:03:18;;;;;;;;;;;;;;;8.76;76.21;98198.72;7386971;19;19919;-76
2022/11/08 02:05:45;;;;;;;;;;;;;;;8.78;76.29;98196.78;7387351;19;20276;-76
2022/11/08 02:08:11;;;;;;;;;;;;;;;8.88;75.99;98200.19;7383381;19;19935;-77
2022/11/08 02:10:39;;;;;;;;;;;;;;;8.79;75.94;98190.50;7388368;19;19918;-77
2022/11/08 02:13:17;;;;;;;;;;;;;;;8.77;76.08;98187.22;7383162;19;20587;-77
2022/11/08 02:15:44;;;;;;;;;;;;;;;8.62;76.20;98188.69;7385546;19;19923;-77
2022/11/08 02:18:10;;;;;;;;;;;;;;;8.63;76.32;98183.25;7386922;19;19967;-77
2022/11/08 02:20:37;;;;;;;;;;;;;;;8.60;76.24;98174.81;7386287;19;19934;-77
2022/11/08 02:23:09;;;;;;;;;;;;;;;8.66;76.30;98171.59;7379733;19;19940;-76
2022/11/08 02:25:35;;;;;;;;;;;;;;;8.62;76.74;98165.78;7383368;19;19934;-76
2022/11/08 02:28:02;;;;;;;;;;;;;;;8.71;76.15;98170.16;7385607;19;19915;-76
2022/11/08 02:30:35;;;;;;;;;;;;;;;8.81;75.38;98164.81;7385851;19;19915;-76
2022/11/08 02:33:13;;;;;;;;;;;;;;;8.72;75.66;98168.38;7384748;19;19911;-76
2022/11/08 02:35:40;;;;;;;;;;;;;;;8.61;75.68;98158.88;7386498;19;19918;-77
2022/11/08 02:38:06;;;;;;;;;;;;;;;8.59;75.66;98155.53;7383969;19;19949;-77
2022/11/08 02:40:49;;;;;;;;;;;;;;;8.55;75.57;98157.63;7384303;19;19922;-76
2022/11/08 02:43:16;;;;;;;;;;;;;;;8.65;75.38;98148.84;7383359;19;19948;-77
2022/11/08 02:45:43;;;;;;;;;;;;;;;8.57;75.43;98147.78;7383003;19;19911;-77
2022/11/08 02:48:09;;;;;;;;;;;;;;;8.54;75.79;98149.88;7383436;19;19962;-76
2022/11/08 02:50:36;;;;;;;;;;;;;;;8.65;74.84;98148.84;7382406;19;19922;-77
2022/11/08 02:53:03;;;;;;;;;;;;;;;8.59;74.41;98152.09;7383246;19;19958;-77
2022/11/08 02:55:29;;;;;;;;;;;;;;;8.49;74.55;98152.13;7385572;19;20124;-77
2022/11/08 02:57:56;;;;;;;;;;;;;;;8.34;75.51;98149.94;7385387;19;20251;-77
2022/11/08 03:00:22;;;;;;;;;;;;;;;8.30;75.90;98142.50;7385386;19;20044;-76
2022/11/08 03:02:52;;;;;;;;;;;;;;;8.34;75.78;98139.41;7382315;19;20598;-76
2022/11/08 03:05:19;;;;;;;;;;;;;;;8.29;75.82;98136.41;7380650;19;20247;-76
2022/11/08 03:07:46;;;;;;;;;;;;;;;8.32;75.74;98136.09;7384804;19;19919;-77
2022/11/08 03:10:12;;;;;;;;;;;;;;;8.36;75.85;98139.25;7386884;19;20251;-77
2022/11/08 03:12:39;;;;;;;;;;;;;;;8.34;75.80;98136.75;7381513;19;19947;-77
2022/11/08 03:15:06;;;;;;;;;;;;;;;8.47;75.14;98133.81;7381502;19;19923;-77
2022/11/08 03:17:33;;;;;;;;;;;;;;;8.26;75.72;98133.22;7384014;19;20272;-77
2022/11/08 03:19:59;;;;;;;;;;;;;;;8.34;75.39;98139.41;7385750;19;20646;-77
2022/11/08 03:22:26;;;;;;;;;;;;;;;8.30;75.52;98132.78;7388217;19;19934;-77
2022/11/08 03:24:52;;;;;;;;;;;;;;;8.31;74.83;98130.97;7392317;19;19922;-77
2022/11/08 03:27:19;;;;;;;;;;;;;;;8.33;74.66;98126.38;7390890;19;20465;-77
2022/11/08 03:29:46;;;;;;;;;;;;;;;8.21;75.42;98131.00;7388730;19;20272;-77
2022/11/08 03:32:13;;;;;;;;;;;;;;;8.22;75.56;98127.41;7389297;19;19927;-77
2022/11/08 03:34:39;;;;;;;;;;;;;;;8.22;75.41;98135.31;7390411;19;19935;-77
2022/11/08 03:37:06;;;;;;;;;;;;;;;8.24;74.68;98135.16;7390257;19;19922;-77
2022/11/08 03:39:33;;;;;;;;;;;;;;;8.25;74.27;98139.47;7388197;19;19947;-77
2022/11/08 03:42:02;;;;;;;;;;;;;;;8.17;75.08;98142.00;7389688;19;19940;-77
2022/11/08 03:44:28;;;;;;;;;;;;;;;8.04;75.42;98135.25;7388153;19;19944;-77
2022/11/08 03:46:55;;;;;;;;;;;;;;;7.94;75.51;98137.09;7388901;19;19943;-77
2022/11/08 03:49:21;;;;;;;;;;;;;;;7.98;75.59;98137.63;7393146;19;19927;-77
2022/11/08 03:51:48;;;;;;;;;;;;;;;8.07;75.27;98136.78;7390914;19;19919;-76
2022/11/08 03:54:14;;;;;;;;;;;;;;;8.08;74.52;98139.28;7388844;19;19943;-77
2022/11/08 03:56:41;;;;;;;;;;;;;;;7.99;75.00;98132.22;7388356;19;19923;-77
2022/11/08 03:59:09;;;;;;;;;;;;;;;7.93;75.66;98132.00;7390310;19;20782;-77
2022/11/08 04:01:35;;;;;;;;;;;;;;;7.90;75.68;98133.94;7386747;19;19918;-77
2022/11/08 04:04:03;;;;;;;;;;;;;;;7.88;75.81;98133.25;7389399;19;19918;-77
2022/11/08 04:06:29;;;;;;;;;;;;;;;7.86;75.62;98123.84;7390100;19;20382;-77
2022/11/08 04:08:56;;;;;;;;;;;;;;;7.81;75.33;98129.53;7392416;19;19963;-77
2022/11/08 04:16:54;;;;;;;;;;;;;;;7.67;76.16;98138.72;7390799;19;19957;-77
2022/11/08 04:22:06;;;;;;;;;;;;;;;7.69;76.05;98135.97;7385060;19;19938;-77
2022/11/08 04:24:32;;;;;;;;;;;;;;;7.62;75.62;98134.88;7386461;19;19940;-77
2022/11/08 04:27:00;;;;;;;;;;;;;;;7.56;75.24;98138.91;7388665;19;19923;-77
2022/11/08 04:29:27;;;;;;;;;;;;;;;7.43;75.27;98128.69;7388901;19;19919;-76
2022/11/08 04:31:53;;;;;;;;;;;;;;;7.50;75.56;98130.72;7383711;19;20042;-77
2022/11/08 04:34:20;;;;;;;;;;;;;;;7.43;75.25;98128.69;7386313;19;19918;-77
2022/11/08 04:36:46;;;;;;;;;;;;;;;7.33;75.81;98125.22;7387670;19;19918;-76
2022/11/08 04:39:13;;;;;;;;;;;;;;;7.51;75.60;98122.69;7387811;19;19939;-76
2022/11/08 04:41:39;;;;;;;;;;;;;;;7.60;75.84;98121.84;7389655;19;19918;-76
2022/11/08 04:44:06;;;;;;;;;;;;;;;7.61;74.96;98120.03;7390194;19;19915;-76
2022/11/08 04:46:33;;;;;;;;;;;;;;;7.76;74.47;98117.78;7385871;19;19926;-77
2022/11/08 04:49:00;;;;;;;;;;;;;;;7.72;75.25;98105.88;7389160;19;19919;-77
2022/11/08 04:51:27;;;;;;;;;;;;;;;7.73;75.92;98110.16;7387560;19;19953;-77
2022/11/08 04:53:56;;;;;;;;;;;;;;;7.78;75.65;98107.94;7385260;19;19918;-77
2022/11/08 04:56:23;;;;;;;;;;;;;;;7.67;76.15;98095.78;7386655;19;19953;-77
2022/11/08 04:58:50;;;;;;;;;;;;;;;7.79;75.69;98094.59;7381101;19;20609;-77
2022/11/08 05:01:18;;;;;;;;;;;;;;;7.70;75.73;98096.31;7385143;19;19922;-77
2022/11/08 05:03:45;;;;;;;;;;;;;;;7.72;75.61;98080.38;7388875;19;19926;-77
2022/11/08 05:06:12;;;;;;;;;;;;;;;7.71;75.89;98083.97;7389410;19;20275;-77
2022/11/08 05:08:39;;;;;;;;;;;;;;;7.64;76.53;98085.53;7387353;19;19929;-77
2022/11/08 05:11:07;;;;;;;;;;;;;;;7.63;76.51;98087.31;7383380;19;20391;-77
2022/11/08 05:13:33;;;;;;;;;;;;;;;7.59;76.55;98082.50;7381184;19;19923;-77
2022/11/08 05:16:01;;;;;;;;;;;;;;;7.71;76.65;98073.44;7383679;19;19923;-76
2022/11/08 05:18:28;;;;;;;;;;;;;;;7.68;76.42;98073.72;7386043;19;19910;-77
2022/11/08 05:23:41;;;;;;;;;;;;;;;7.59;76.04;98070.16;7386981;19;19922;-77
2022/11/08 05:26:07;;;;;;;;;;;;;;;7.65;75.49;98066.94;7385699;19;19911;-77
2022/11/08 05:28:34;;;;;;;;;;;;;;;7.62;75.62;98069.88;7385090;19;20354;-77
2022/11/08 05:31:01;;;;;;;;;;;;;;;7.47;75.43;98080.03;7386099;19;19957;-77
2022/11/08 05:33:27;;;;;;;;;;;;;;;7.52;75.00;98087.50;7382550;19;19919;-77
2022/11/08 05:35:54;;;;;;;;;;;;;;;7.44;74.47;98088.22;7387699;19;19918;-77
2022/11/08 05:38:28;;;;;;;;;;;;;;;7.48;74.04;98081.69;7384874;19;19925;-77
2022/11/08 05:41:00;;;;;;;;;;;;;;;7.22;75.40;98084.13;7387563;19;19918;-77
2022/11/08 05:43:26;;;;;;;;;;;;;;;7.27;75.36;98094.22;7382915;19;19918;-77
2022/11/08 05:45:53;;;;;;;;;;;;;;;7.26;75.09;98087.28;7384436;19;19918;-77
2022/11/08 05:48:20;;;;;;;;;;;;;;;7.21;75.46;98071.94;7384609;19;19926;-77
2022/11/08 05:51:08;;;;;;;;;;;;;;;7.25;75.62;98073.31;7385473;19;19923;-77
2022/11/08 05:53:34;;;;;;;;;;;;;;;7.24;75.54;98070.81;7381959;19;19922;-76
2022/11/08 05:56:03;;;;;;;;;;;;;;;7.19;75.43;98073.06;7383803;19;20323;-76
2022/11/08 05:58:30;;;;;;;;;;;;;;;7.11;75.36;98079.03;7382618;19;19907;-74
2022/11/08 06:01:04;;;;;;;;;;;;;;;7.10;75.61;98076.53;7380835;19;19943;-75
2022/11/08 06:04:02;;;;;;;;;;;;;;;;;;;;;
2022/11/08 06:06:40;;;;;;;;;;;;;;;7.07;75.82;98076.81;7380658;19;19928;-75
2022/11/08 06:09:29;;;;;;;;;;;;;;;7.10;75.82;98060.75;7385021;19;20007;-76
2022/11/08 06:15:32;;;;;;;;;;;;;;;7.02;76.21;98077.22;7381007;19;19969;-76
2022/11/08 06:18:04;;;;;;;;;;;;;;;7.00;76.39;98068.63;7384127;19;19943;-76
2022/11/08 06:20:31;;;;;;;;;;;;;;;6.93;76.57;98067.56;7386540;19;19919;-77
2022/11/08 06:22:57;;;;;;;;;;;;;;;6.99;76.69;98064.34;7382904;19;19947;-77
2022/11/08 06:25:24;;;;;;;;;;;;;;;7.01;77.30;98059.78;7377932;19;19944;-77
2022/11/08 06:27:51;;;;;;;;;;;;;;;7.17;77.40;98069.75;7380476;19;19947;-77
2022/11/08 06:30:17;;;;;;;;;;;;;;;7.26;77.08;98063.59;7382625;19;20339;-77
2022/11/08 06:32:44;;;;;;;;;;;;;;;7.32;76.90;98073.59;7381362;19;19944;-77
2022/11/08 06:35:10;;;;;;;;;;;;;;;7.24;76.87;98068.16;7385121;19;19927;-77
2022/11/08 06:37:37;;;;;;;;;;;;;;;7.32;76.89;98072.72;7387378;19;21003;-77
2022/11/08 06:40:04;;;;;;;;;;;;;;;7.36;76.84;98082.00;7387661;19;19940;-77
2022/11/08 06:42:30;;;;;;;;;;;;;;;7.41;77.04;98074.53;7386572;19;19959;-77
2022/11/08 06:44:57;;;;;;;;;;;;;;;7.47;76.91;98081.84;7390858;19;19919;-77
2022/11/08 06:47:23;;;;;;;;;;;;;;;7.47;77.20;98077.41;7388473;19;19947;-76
2022/11/08 06:49:50;;;;;;;;;;;;;;;7.52;77.09;98073.50;7385270;19;19993;-77
2022/11/08 06:52:17;;;;;;;;;;;;;;;7.59;76.99;98075.44;7385671;19;20338;-77
2022/11/08 06:54:43;;;;;;;;;;;;;;;7.65;76.70;98072.22;7387672;19;19940;-77
2022/11/08 06:57:10;;;;;;;;;;;;;;;7.72;77.03;98069.84;7393400;19;19926;-77
2022/11/08 06:59:37;;;;;;;;;;;;;;;7.80;76.70;98066.50;7393051;19;19936;-77
2022/11/08 07:02:03;;;;;;;;;;;;;;;7.88;76.91;98063.94;7396542;19;19911;-77
2022/11/08 07:04:30;;;;;;;;;;;;;;;7.90;76.64;98065.47;7393169;19;19919;-77
2022/11/08 07:06:57;;;;;;;;;;;;;;;7.99;76.48;98069.00;7395791;19;20342;-77
2022/11/08 07:09:24;;;;;;;;;;;;;;;8.02;75.88;98067.88;7397138;19;19986;-77
2022/11/08 07:11:50;;;;;;;;;;;;;;;8.16;75.46;98061.28;7392789;19;19919;-77
2022/11/08 07:14:17;;;;;;;;;;;;;;;8.22;75.20;98066.81;7390673;19;19918;-76
2022/11/08 07:16:43;;;;;;;;;;;;;;;8.24;75.52;98062.22;7392596;19;20030;-77
2022/11/08 07:19:10;;;;;;;;;;;;;;;8.29;75.91;98075.78;7393201;19;20251;-77
2022/11/08 07:21:37;;;;;;;;;;;;;;;8.30;75.49;98068.72;7392954;19;19922;-77
2022/11/08 07:24:04;;;;;;;;;;;;;;;8.50;74.39;98075.50;7393075;19;19935;-76
2022/11/08 07:26:30;;;;;;;;;;;;;;;8.49;74.22;98073.03;7394459;19;19957;-77
2022/11/08 07:28:57;;;;;;;;;;;;;;;8.52;74.66;98083.28;7391220;19;20623;-77
2022/11/08 07:31:23;;;;;;;;;;;;;;;8.57;74.12;98092.41;7391357;19;20343;-76
2022/11/08 07:33:50;;;;;;;;;;;;;;;8.72;73.77;98090.06;7394444;19;19915;-77
2022/11/08 07:36:16;;;;;;;;;;;;;;;8.71;74.72;98098.13;7392749;19;20403;-77
2022/11/08 07:38:44;;;;;;;;;;;;;;;8.85;74.53;98092.34;7393679;19;19911;-77
2022/11/08 07:41:10;;;;;;;;;;;;;;;9.00;74.05;98092.59;7392930;19;19918;-76
2022/11/08 07:43:37;;;;;;;;;;;;;;;8.99;74.29;98099.69;7391925;19;19926;-77
2022/11/08 07:46:14;;;;;;;;;;;;;;;9.14;73.80;98094.72;7395440;19;19974;-77
2022/11/08 07:48:41;;;;;;;;;;;;;;;9.10;73.13;98085.44;7391863;19;19914;-77
2022/11/08 07:51:07;;;;;;;;;;;;;;;9.08;73.72;98097.94;7394478;19;20331;-77
2022/11/08 07:53:34;;;;;;;;;;;;;;;9.17;72.69;98094.41;7390410;19;19918;-77
2022/11/08 07:56:00;;;;;;;;;;;;;;;9.12;72.65;98086.13;7388220;19;20661;-77
2022/11/08 07:58:27;;;;;;;;;;;;;;;9.10;73.04;98082.78;7390774;19;19959;-76
2022/11/08 08:00:58;;;;;;;;;;;;;;;9.14;72.64;98083.34;7390939;19;19923;-77
2022/11/08 08:03:25;;;;;;;;;;;;;;;9.03;73.19;98073.84;7385191;19;19915;-76
2022/11/08 08:05:52;;;;;;;;;;;;;;;8.93;74.33;98073.94;7386536;19;19940;-77
2022/11/08 08:08:26;;;;;;;;;;;;;;;8.87;75.30;98058.69;7393013;19;19907;-77
2022/11/08 08:10:55;;;;;;;;;;;;;;;8.97;75.73;98042.78;7387614;19;19922;-77
2022/11/08 08:13:22;;;;;;;;;;;;;;;9.12;74.85;98014.84;7383083;19;19922;-77
2022/11/08 08:15:48;;;;;;;;;;;;;;;9.41;74.51;98013.72;7394211;19;19918;-77
2022/11/08 08:18:18;;;;;;;;;;;;;;;9.56;75.00;98019.25;7396325;19;20267;-77
2022/11/08 08:20:48;;;;;;;;;;;;;;;9.86;73.81;98023.16;7394935;19;20351;-77
2022/11/08 08:23:15;;;;;;;;;;;;;;;10.33;72.86;98028.75;7389665;19;19943;-77
2022/11/08 08:25:43;;;;;;;;;;;;;;;10.75;71.31;98042.88;7394495;19;20466;-77
2022/11/08 08:28:09;;;;;;;;;;;;;;;11.09;70.71;98049.81;7390967;19;19922;-77
2022/11/08 08:30:40;;;;;;;;;;;;;;;11.32;69.85;98053.41;7391051;19;19926;-77
2022/11/08 08:33:15;;;;;;;;;;;;;;;11.58;69.77;98068.25;7388702;19;19936;-77
2022/11/08 08:35:59;;;;;;;;;;;;;;;11.72;68.85;98074.69;7388403;19;19942;-77
2022/11/08 08:38:26;;;;;;;;;;;;;;;11.89;68.94;98068.34;7387981;19;19911;-77
2022/11/08 08:40:53;;;;;;;;;;;;;;;11.98;67.43;98075.28;7390139;19;19935;-77
2022/11/08 08:43:23;;;;;;;;;;;;;;;12.27;67.39;98066.69;7388830;19;20250;-76
2022/11/08 08:45:49;;;;;;;;;;;;;;;12.45;67.42;98073.53;7390306;19;20314;-77
2022/11/08 08:48:16;;;;;;;;;;;;;;;12.78;65.82;98070.69;7389716;19;19974;-77
2022/11/08 08:50:43;;;;;;;;;;;;;;;13.00;67.15;98072.50;7391310;19;20313;-77
2022/11/08 08:53:10;;;;;;;;;;;;;;;13.14;67.13;98079.69;7387221;19;19923;-76
2022/11/08 08:55:38;;;;;;;;;;;;;;;13.15;64.31;98070.72;7388059;19;19914;-77
2022/11/08 08:58:05;;;;;;;;;;;;;;;13.21;64.15;98068.34;7389341;19;20361;-77
2022/11/08 09:00:32;;;;;;;;;;;;;;;13.22;64.02;98070.84;7389892;19;19911;-77
2022/11/08 09:03:18;;;;;;;;;;;;;;;13.06;64.77;98061.19;7386200;19;19934;-77
2022/11/08 09:05:46;;;;;;;;;;;;;;;13.05;64.60;98061.34;7388878;19;19918;-77
2022/11/08 09:08:13;;;;;;;;;;;;;;;13.00;64.53;98069.84;7393278;19;19951;-77
2022/11/08 09:10:40;;;;;;;;;;;;;;;12.99;64.52;98070.84;7390983;19;19922;-77
2022/11/08 09:13:06;;;;;;;;;;;;;;;12.71;63.41;98057.28;7388292;19;20433;-77
2022/11/08 09:15:33;;;;;;;;;;;;;;;12.77;63.83;98064.56;7391755;19;19940;-77
2022/11/08 09:17:59;;;;;;;;;;;;;;;12.70;64.19;98069.75;7391377;19;20295;-77
2022/11/08 09:20:26;;;;;;;;;;;;;;;12.65;64.15;98085.38;7384648;19;19923;-77
2022/11/08 09:22:53;;;;;;;;;;;;;;;12.61;65.21;98093.84;7387600;19;19919;-76
2022/11/08 09:25:19;;;;;;;;;;;;;;;12.52;67.14;98096.56;7393362;19;20388;-77
2022/11/08 09:27:46;;;;;;;;;;;;;;;12.57;67.40;98092.56;7390639;19;20252;-77
2022/11/08 09:30:12;;;;;;;;;;;;;;;12.78;66.27;98095.41;7389790;19;19943;-77
2022/11/08 09:32:39;;;;;;;;;;;;;;;12.84;64.54;98089.38;7388363;19;20236;-77
2022/11/08 09:35:25;;;;;;;;;;;;;;;13.04;63.94;98092.41;7387677;19;19957;-77
2022/11/08 09:37:52;;;;;;;;;;;;;;;13.13;62.60;98093.97;7387577;19;19922;-77
2022/11/08 09:40:57;;;;;;;;;;;;;;;13.09;63.18;98100.66;7387903;19;19932;-77
2022/11/08 09:43:24;;;;;;;;;;;;;;;13.20;62.94;98098.59;7384244;19;19918;-77
2022/11/08 09:45:52;;;;;;;;;;;;;;;13.14;63.82;98086.84;7388035;19;19944;-77
2022/11/08 09:48:24;;;;;;;;;;;;;;;13.17;64.54;98097.09;7388982;19;19919;-77
2022/11/08 09:50:53;;;;;;;;;;;;;;;13.28;64.25;98098.53;7389878;19;19919;-77
2022/11/08 09:53:33;;;;;;;;;;;;;;;13.17;63.86;98097.09;7384760;19;19922;-77
2022/11/08 09:56:29;;;;;;;;;;;;;;;12.98;64.54;98098.44;7382367;19;19943;-77
2022/11/08 09:59:01;;;;;;;;;;;;;;;12.86;65.53;98099.84;7378891;19;19951;-77
2022/11/08 10:01:28;;;;;;;;;;;;;;;12.70;66.39;98100.78;7384048;19;20600;-77
2022/11/08 10:03:56;;;;;;;;;;;;;;;12.69;67.20;98092.00;7381408;19;19957;-77
2022/11/08 10:06:46;;;;;;;;;;;;;;;12.77;67.31;98098.22;7385164;19;19959;-77
2022/11/08 10:09:32;;;;;;;;;;;;;;;12.97;65.89;98102.06;7386333;19;19918;-77
2022/11/08 10:12:10;;;;;;;;;;;;;;;13.02;66.55;98099.72;7387502;19;19935;-77
2022/11/08 10:14:40;;;;;;;;;;;;;;;13.18;66.87;98090.78;7387858;19;19943;-77
2022/11/08 10:17:19;;;;;;;;;;;;;;;13.46;64.61;98088.41;7390255;19;19910;-77
2022/11/08 10:20:00;;;;;;;;;;;;;;;13.58;66.44;98086.13;7387310;19;19911;-77
2022/11/08 10:22:32;;;;;;;;;;;;;;;13.71;65.75;98080.16;7390504;19;19966;-77
2022/11/08 10:25:00;;;;;;;;;;;;;;;13.81;66.46;98084.22;7393740;19;19918;-77
2022/11/08 10:27:29;;;;;;;;;;;;;;;14.04;65.41;98084.13;7388885;19;19923;-77
2022/11/08 10:29:57;;;;;;;;;;;;;;;14.12;63.75;98077.88;7389708;19;19923;-77
2022/11/08 10:32:24;;;;;;;;;;;;;;;14.24;61.36;98072.88;7389426;19;19951;-77
2022/11/08 10:35:09;;;;;;;;;;;;;;;14.37;60.53;98078.34;7388148;19;19935;-77
2022/11/08 10:37:36;;;;;;;;;;;;;;;14.28;61.30;98071.50;7391925;19;19923;-77
2022/11/08 10:40:12;;;;;;;;;;;;;;;14.29;62.19;98073.16;7388972;19;20369;-77
2022/11/08 10:42:44;;;;;;;;;;;;;;;14.26;62.29;98070.88;7387076;19;20355;-77
2022/11/08 10:45:11;;;;;;;;;;;;;;;14.34;63.14;98070.75;7387010;19;19949;-77
2022/11/08 10:47:38;;;;;;;;;;;;;;;14.43;62.98;98069.66;7388367;19;19948;-76
2022/11/08 10:50:15;;;;;;;;;;;;;;;14.32;62.65;98059.47;7385434;19;19982;-77
2022/11/08 10:52:53;;;;;;;;;;;;;;;14.35;62.32;98056.47;7384484;19;20363;-77
2022/11/08 10:55:24;;;;;;;;;;;;;;;14.52;62.68;98051.72;7388148;19;19923;-77
2022/11/08 10:57:50;;;;;;;;;;;;;;;14.65;60.91;98048.41;7387560;19;20282;-77
2022/11/08 11:00:20;;;;;;;;;;;;;;;14.73;61.55;98042.94;7387611;19;19927;-77
2022/11/08 11:02:53;;;;;;;;;;;;;;;14.64;63.18;98038.75;7384937;19;19990;-77
2022/11/08 11:05:24;;;;;;;;;;;;;;;14.80;59.71;98033.19;7389527;19;19927;-77
2022/11/08 11:08:12;;;;;;;;;;;;;;;14.98;58.29;98043.41;7387114;19;19959;-77
2022/11/08 11:10:40;;;;;;;;;;;;;;;15.13;59.06;98052.09;7387493;19;20342;-77
2022/11/08 11:13:12;;;;;;;;;;;;;;;15.13;57.27;98043.28;7385659;19;19919;-77
2022/11/08 11:15:45;;;;;;;;;;;;;;;15.31;58.69;98040.97;7384665;19;19925;-77
2022/11/08 11:18:18;;;;;;;;;;;;;;;15.18;57.27;98029.41;7385522;19;19919;-76
2022/11/08 11:21:02;;;;;;;;;;;;;;;15.23;57.64;98032.31;7385979;19;19960;-77
2022/11/08 11:23:38;;;;;;;;;;;;;;;15.28;57.46;98032.56;7383428;19;19919;-77
2022/11/08 11:26:05;;;;;;;;;;;;;;;15.24;57.25;98028.59;7385247;19;20450;-78
2022/11/08 11:28:34;;;;;;;;;;;;;;;15.30;57.53;98028.69;7388328;19;19922;-76
2022/11/08 11:31:02;;;;;;;;;;;;;;;15.36;58.37;98027.88;7387726;19;19922;-77
2022/11/08 11:33:30;;;;;;;;;;;;;;;15.46;58.58;98016.06;7380802;19;19927;-76
2022/11/08 11:35:57;;;;;;;;;;;;;;;15.47;58.69;98018.53;7386025;19;19982;-78
2022/11/08 11:38:27;;;;;;;;;;;;;;;15.51;59.85;98013.63;7386628;19;20366;-76
2022/11/08 11:40:53;;;;;;;;;;;;;;;15.52;60.41;98013.44;7386460;19;19919;-77
2022/11/08 11:43:20;;;;;;;;;;;;;;;15.65;60.05;98015.34;7387950;19;19931;-77
2022/11/08 11:45:56;;;;;;;;;;;;;;;15.58;60.17;98015.28;7392442;19;19923;-77
2022/11/08 11:48:27;;;;;;;;;;;;;;;15.68;60.02;98006.13;7395410;19;19939;-76
2022/11/08 11:50:53;;;;;;;;;;;;;;;15.76;61.05;98009.47;7389744;19;20022;-77
2022/11/08 11:53:24;;;;;;;;;;;;;;;15.94;59.99;98010.81;7391159;19;19938;-77
2022/11/08 11:56:04;;;;;;;;;;;;;;;16.01;58.62;98003.66;7396076;19;19911;-76
2022/11/08 11:58:37;;;;;;;;;;;;;;;16.15;58.65;97994.66;7389851;19;19961;-77
2022/11/08 12:01:06;;;;;;;;;;;;;;;16.22;56.98;97995.50;7388756;19;20038;-77
2022/11/08 12:03:59;;;;;;;;;;;;;;;16.45;57.19;97999.66;7390133;19;19918;-77
2022/11/08 12:06:49;;;;;;;;;;;;;;;16.57;56.03;98000.72;7387582;19;19918;-77
2022/11/08 12:09:51;;;;;;;;;;;;;;;16.58;55.34;97990.84;7393774;19;19914;-77
2022/11/08 12:12:21;;;;;;;;;;;;;;;16.61;56.76;97998.44;7385109;19;19944;-77
2022/11/08 12:15:03;;;;;;;;;;;;;;;16.74;56.32;97994.97;7388262;19;19923;-77
2022/11/08 12:17:48;;;;;;;;;;;;;;;16.67;55.79;97998.47;7390571;19;19958;-77
2022/11/08 12:20:31;;;;;;;;;;;;;;;16.67;55.19;98000.31;7390000;19;19914;-76
2022/11/08 12:23:15;;;;;;;;;;;;;;;16.63;56.03;97999.06;7389170;19;19927;-77
2022/11/08 12:25:41;;;;;;;;;;;;;;;16.44;57.86;97987.34;7388121;19;19927;-77
2022/11/08 12:28:19;;;;;;;;;;;;;;;16.66;57.57;97988.81;7393120;19;20286;-77
2022/11/08 12:30:46;;;;;;;;;;;;;;;16.83;57.14;97986.59;7390171;19;19919;-77
2022/11/08 12:33:15;;;;;;;;;;;;;;;16.85;55.42;97973.03;7388094;19;19918;-77
2022/11/08 12:35:57;;;;;;;;;;;;;;;16.96;54.38;97972.41;7391251;19;19923;-76
2022/11/08 12:38:27;;;;;;;;;;;;;;;17.04;54.88;97972.22;7390192;19;19922;-77
2022/11/08 12:40:58;;;;;;;;;;;;;;;17.06;53.10;97977.31;7386089;19;19914;-77
2022/11/08 12:43:27;;;;;;;;;;;;;;;17.27;54.32;97977.13;7386931;19;19922;-77
2022/11/08 12:45:57;;;;;;;;;;;;;;;17.35;53.33;97973.38;7392064;19;19914;-77
2022/11/08 12:48:35;;;;;;;;;;;;;;;17.23;54.30;97961.69;7388408;19;19929;-77
2022/11/08 12:51:05;;;;;;;;;;;;;;;17.31;53.89;97964.97;7389773;19;20542;-77
2022/11/08 12:53:49;;;;;;;;;;;;;;;17.42;53.79;97958.16;7387742;19;19915;-78
2022/11/08 12:56:17;;;;;;;;;;;;;;;17.48;51.63;97956.47;7391614;19;20713;-78
2022/11/08 12:58:44;;;;;;;;;;;;;;;17.59;52.23;97953.19;7388180;19;19962;-77
2022/11/08 13:01:12;;;;;;;;;;;;;;;17.67;50.93;97944.91;7388469;19;19943;-76
2022/11/08 13:03:50;;;;;;;;;;;;;;;17.83;51.64;97943.66;7388468;19;19919;-76
2022/11/08 13:06:23;;;;;;;;;;;;;;;17.81;49.77;97947.56;7387974;19;20480;-77
2022/11/08 13:09:02;;;;;;;;;;;;;;;17.82;49.59;97944.66;7393453;19;19919;-77
2022/11/08 13:11:36;;;;;;;;;;;;;;;17.85;50.33;97946.09;7391965;19;19932;-77
2022/11/08 13:14:02;;;;;;;;;;;;;;;17.64;50.37;97945.34;7388082;19;19955;-77
2022/11/08 13:16:39;;;;;;;;;;;;;;;17.68;49.31;97946.53;7387177;19;19919;-76
2022/11/08 13:19:08;;;;;;;;;;;;;;;17.76;50.11;97945.50;7390688;19;19915;-76
2022/11/08 13:21:39;;;;;;;;;;;;;;;17.60;48.80;97946.78;7387993;19;20333;-76
2022/11/08 13:24:06;;;;;;;;;;;;;;;17.55;49.01;97934.03;7390196;19;19934;-76
2022/11/08 13:26:52;;;;;;;;;;;;;;;17.69;51.38;97942.00;7391372;19;19911;-76
2022/11/08 13:29:26;;;;;;;;;;;;;;;17.61;51.00;97929.69;7389491;19;20428;-76
2022/11/08 13:31:55;;;;;;;;;;;;;;;17.57;50.46;97935.69;7390575;19;20330;-75